Ana Sayfa
METAR-TAF:

METAR-TAF

Havaalanları :

Naval Air Station JRB Fort Worth (Carswell Field)

Fort Worth, Teksas, Amerika Birleşik Devletleri

Enlem: 32-45-57N, Boylam: 097-26-00W, yükseklik: 198 m

Güncel hava durumu gözlemi

Rapor saat 22:52 UTC de 57 dakika önce yapıldı.
Rüzgar güney/güneybatıdan 11 kt
Sıcaklık 17°C
Nem 19%
Basınç 1023 hPa
Görüş mesafesi: 11.3 km
Açık gökyüzü

METAR: KNFW 272252Z 21011KT 7SM CLR 17/M07 A3021 RMK AO2 SLP212 T01721072 VISNO N $

Saat: 17:49 (23:49 UTC)

Tahmin

Ayın 27'si saat 23 UTC'den ayın 28'si saat 23 UTC'ye kadar geçerli Tahmin
Rüzgar güney/güneybatıdan 6 kt
Görüş mesafesi 10 km veya daha fazla
Açık gökyüzü
Ayın 28'si saat 1800 UTC'den
Rüzgar batı/güneybatıdan 8 kt
Görüş mesafesi: 2812 m
15000 ft yükseklikte az bulutlu

TAF: KNFW 2723/2823 21006KT 9999 CLR QNH3017INS FM281800 25008KT 9999 FEW150 QNH3025INS AUTOMATED SENSOR METWATCH 2805 TIL 2812 T03/2813Z T20/2822Z FN20048

4.000'den fazla havaalanı için hava durumu gözlemleri ve tahminleri (METAR ve TAF raporları).

Kullanılabilir istasyonlar harita üzerinde sarı ve kırmızı noktalarla gösterilir.

İstasyonun adını görmek için fareyi noktanın üzerinde gezdirin.

Sonrasında hava gözlem ve tahminlerini görmek için tıklayın.

Haritayı değiştirmek için: yaklaştırmak için siyah artı işaretli yeşil düğmeye ve uzaklaştırmak için de eksi işaretli düğmeye hızla tıklayın; bitişik haritalar için yeşil okları kullanın.


METAR-TAF: